createdAt,value
2022-08-19T00:01:00.239Z,16.10
2022-08-19T00:03:30.890Z,16.40
2022-08-19T00:06:00.271Z,17.40
2022-08-19T00:08:29.644Z,19.40
2022-08-19T00:10:58.987Z,15.97
2022-08-19T00:13:29.590Z,21.13
2022-08-19T00:15:59.616Z,15.90
2022-08-19T00:18:30.707Z,16.05
2022-08-19T00:21:00.486Z,17.48
2022-08-19T00:23:29.778Z,17.55
2022-08-19T00:25:58.834Z,15.52
2022-08-19T00:28:27.991Z,16.07
2022-08-19T00:30:57.062Z,18.73
2022-08-19T00:33:26.327Z,16.33
2022-08-19T00:36:01.503Z,16.73
2022-08-19T00:38:37.386Z,18.37
2022-08-19T00:41:07.890Z,17.90
2022-08-19T00:43:39.723Z,18.53
2022-08-19T00:46:09.077Z,19.40
2022-08-19T00:48:38.419Z,17.30
2022-08-19T00:51:09.403Z,16.90
2022-08-19T00:53:38.605Z,15.97
2022-08-19T00:56:09.741Z,16.30
2022-08-19T00:58:39.337Z,18.60
2022-08-19T01:01:08.847Z,17.43
2022-08-19T01:03:56.482Z,17.53
2022-08-19T01:06:29.034Z,19.03
2022-08-19T01:08:58.201Z,16.60
2022-08-19T01:11:27.733Z,18.92
2022-08-19T01:13:57.520Z,16.83
2022-08-19T01:16:29.357Z,17.90
2022-08-19T01:18:58.550Z,17.77
2022-08-19T01:21:36.796Z,16.93
2022-08-19T01:24:07.691Z,17.77
2022-08-19T01:26:42.778Z,18.53
2022-08-19T01:29:13.742Z,18.80
2022-08-19T01:31:44.138Z,17.97
2022-08-19T01:34:13.404Z,19.10
2022-08-19T01:36:48.288Z,18.23
2022-08-19T01:39:22.450Z,17.03
2022-08-19T01:41:52.260Z,19.33
2022-08-19T01:44:24.946Z,20.70
2022-08-19T01:46:54.287Z,19.97
2022-08-19T01:49:26.237Z,17.47
2022-08-19T01:51:56.466Z,18.60
2022-08-19T01:54:28.127Z,19.50
2022-08-19T01:57:04.027Z,19.30
2022-08-19T01:59:34.787Z,22.20
2022-08-19T02:02:04.354Z,19.93
2022-08-19T02:04:33.406Z,18.13
2022-08-19T02:07:02.644Z,21.20
2022-08-19T02:09:34.071Z,19.70
2022-08-19T02:12:03.246Z,20.20
2022-08-19T02:14:32.696Z,20.37
2022-08-19T02:17:02.024Z,20.70
2022-08-19T02:19:33.370Z,23.37
2022-08-19T02:22:02.985Z,22.87
2022-08-19T02:24:33.535Z,25.77
2022-08-19T02:27:02.667Z,23.60
2022-08-19T02:29:31.704Z,21.98
2022-08-19T02:32:00.810Z,22.25
2022-08-19T02:34:30.047Z,24.97
2022-08-19T02:37:03.481Z,23.97
2022-08-19T02:39:33.485Z,24.90
2022-08-19T02:42:02.810Z,22.15
2022-08-19T02:44:32.145Z,23.05
2022-08-19T02:47:01.391Z,23.17
2022-08-19T02:49:34.690Z,25.25
2022-08-19T02:52:05.123Z,23.90
2022-08-19T02:54:35.625Z,23.58
2022-08-19T02:57:05.393Z,28.52
2022-08-19T02:59:35.476Z,28.33
2022-08-19T03:02:05.326Z,25.52
2022-08-19T03:04:34.457Z,26.97
2022-08-19T03:07:10.935Z,25.40
2022-08-19T03:09:43.322Z,28.15
2022-08-19T03:12:12.601Z,26.52
2022-08-19T03:14:42.096Z,26.25
2022-08-19T03:17:11.539Z,29.08
2022-08-19T03:19:40.728Z,27.67
2022-08-19T03:22:09.871Z,26.38
2022-08-19T03:24:44.353Z,27.02
2022-08-19T03:27:13.382Z,26.65
2022-08-19T03:29:43.823Z,29.70
2022-08-19T03:32:29.686Z,26.80
2022-08-19T03:35:03.250Z,32.10
2022-08-19T03:37:32.468Z,26.40
2022-08-19T03:40:30.329Z,23.85
2022-08-19T03:42:59.738Z,26.77
2022-08-19T03:45:29.084Z,28.83
2022-08-19T03:47:58.609Z,26.80
2022-08-19T03:50:27.783Z,28.02
2022-08-19T03:52:56.963Z,26.50
2022-08-19T03:55:27.461Z,26.73
2022-08-19T03:57:59.206Z,29.10
2022-08-19T04:00:28.618Z,35.53
2022-08-19T04:03:00.311Z,31.23
2022-08-19T04:05:31.588Z,27.55
2022-08-19T04:08:01.593Z,31.65
2022-08-19T04:10:32.322Z,27.58
2022-08-19T04:13:01.491Z,24.27
2022-08-19T04:15:36.661Z,24.25
2022-08-19T04:18:07.103Z,26.48
2022-08-19T04:20:42.809Z,30.63
2022-08-19T04:23:12.785Z,25.13
2022-08-19T04:25:46.847Z,29.33
2022-08-19T04:28:16.340Z,26.38
2022-08-19T04:30:49.613Z,24.90
2022-08-19T04:33:50.689Z,30.50
2022-08-19T04:36:47.478Z,31.30
2022-08-19T04:39:20.306Z,30.60
2022-08-19T04:42:17.947Z,28.55
2022-08-19T04:44:53.103Z,35.30
2022-08-19T04:47:47.616Z,32.47
2022-08-19T04:50:16.758Z,28.17
2022-08-19T04:52:48.204Z,36.20
2022-08-19T04:55:17.594Z,32.30
2022-08-19T04:57:48.066Z,29.83
2022-08-19T05:00:17.482Z,33.92
2022-08-19T05:02:46.594Z,29.90
2022-08-19T05:05:15.739Z,27.20
2022-08-19T05:07:44.782Z,27.77
2022-08-19T05:10:14.260Z,28.63
2022-08-19T05:12:43.377Z,29.75
2022-08-19T05:15:14.348Z,27.90
2022-08-19T05:18:04.151Z,28.33
2022-08-19T05:20:50.780Z,30.08
2022-08-19T05:23:22.744Z,27.90
2022-08-19T05:25:53.062Z,31.15
2022-08-19T05:28:22.844Z,25.55
2022-08-19T05:30:53.354Z,33.45
2022-08-19T05:33:22.532Z,29.08
2022-08-19T05:35:51.803Z,26.30
2022-08-19T05:38:23.481Z,32.10
2022-08-19T05:40:52.730Z,27.02
2022-08-19T05:43:21.892Z,28.48
2022-08-19T05:45:52.741Z,28.98
2022-08-19T05:48:21.882Z,26.60
2022-08-19T05:50:51.823Z,26.85
2022-08-19T05:53:21.422Z,30.50
2022-08-19T05:55:50.590Z,27.42
2022-08-19T05:58:19.739Z,28.27
2022-08-19T06:00:55.863Z,28.98
2022-08-19T06:03:25.087Z,30.58
2022-08-19T06:05:55.234Z,28.70
2022-08-19T06:08:34.537Z,27.08
2022-08-19T06:11:21.043Z,29.45
2022-08-19T06:13:59.462Z,30.35
2022-08-19T06:16:36.141Z,30.50
2022-08-19T06:19:09.044Z,32.40
2022-08-19T06:21:41.309Z,30.33
2022-08-19T06:24:16.920Z,30.95
2022-08-19T06:29:24.034Z,27.50
2022-08-19T06:31:57.384Z,30.75
2022-08-19T06:34:28.281Z,26.77
2022-08-19T06:37:02.073Z,30.00
2022-08-19T06:39:33.908Z,31.70
2022-08-19T06:42:09.452Z,27.98
2022-08-19T06:44:43.809Z,33.58
2022-08-19T06:47:23.439Z,34.70
2022-08-19T06:50:01.512Z,32.55
2022-08-19T06:52:34.842Z,30.02
2022-08-19T06:55:07.677Z,30.33
2022-08-19T06:57:37.094Z,31.08
2022-08-19T07:00:13.055Z,31.27
2022-08-19T07:02:49.569Z,33.63
2022-08-19T07:05:24.924Z,28.65
2022-08-19T07:07:54.062Z,33.72
2022-08-19T07:10:27.496Z,31.90
2022-08-19T07:12:56.725Z,33.70
2022-08-19T07:15:25.918Z,33.00
2022-08-19T07:17:56.550Z,31.83
2022-08-19T07:20:28.492Z,30.20
2022-08-19T07:22:58.073Z,31.70
2022-08-19T07:25:32.192Z,32.85
2022-08-19T07:28:01.834Z,26.55
2022-08-19T07:30:31.568Z,30.35
2022-08-19T07:33:03.438Z,30.05
2022-08-19T07:35:34.430Z,33.50
2022-08-19T07:38:04.643Z,26.42
2022-08-19T07:40:33.894Z,25.85
2022-08-19T07:43:03.030Z,26.63
2022-08-19T07:45:33.163Z,28.65
2022-08-19T07:48:05.292Z,25.65
2022-08-19T07:50:34.705Z,26.00
2022-08-19T07:53:03.844Z,30.73
2022-08-19T07:55:41.740Z,28.85
2022-08-19T07:58:15.485Z,26.02
2022-08-19T08:00:47.550Z,28.15
2022-08-19T08:03:20.637Z,28.20
2022-08-19T08:06:07.348Z,29.05
2022-08-19T08:08:54.212Z,26.75
2022-08-19T08:11:24.032Z,24.55
2022-08-19T08:14:00.487Z,27.48
2022-08-19T08:16:39.766Z,26.92
2022-08-19T08:19:25.478Z,25.02
2022-08-19T08:21:57.366Z,28.67
2022-08-19T08:24:28.256Z,25.48
2022-08-19T08:26:59.774Z,25.63
2022-08-19T08:29:35.120Z,29.45
2022-08-19T08:32:14.872Z,27.83
2022-08-19T08:34:47.447Z,24.23
2022-08-19T08:37:23.123Z,27.25
2022-08-19T08:39:52.261Z,25.83
2022-08-19T08:42:27.676Z,30.42
2022-08-19T08:45:02.209Z,27.52
2022-08-19T08:47:38.529Z,25.25
2022-08-19T08:50:20.341Z,28.00
2022-08-19T08:52:53.961Z,24.70
2022-08-19T08:55:36.648Z,28.00
2022-08-19T08:58:10.100Z,23.85
2022-08-19T09:00:42.928Z,22.80
2022-08-19T09:03:20.778Z,25.30
2022-08-19T09:06:02.490Z,29.47
2022-08-19T09:08:56.953Z,26.10
2022-08-19T09:11:44.353Z,24.80
2022-08-19T09:14:51.044Z,23.30
2022-08-19T09:17:31.767Z,27.98
2022-08-19T09:20:09.161Z,24.70
2022-08-19T09:22:44.967Z,22.75
2022-08-19T09:25:17.953Z,27.55
2022-08-19T09:28:02.902Z,24.52
2022-08-19T09:30:41.230Z,28.27
2022-08-19T09:33:10.776Z,23.52
2022-08-19T09:35:49.942Z,25.98
2022-08-19T09:38:24.368Z,23.75
2022-08-19T09:40:53.690Z,21.75
2022-08-19T09:43:33.001Z,20.05
2022-08-19T09:46:03.904Z,25.00
2022-08-19T09:48:33.597Z,21.27
2022-08-19T09:51:07.693Z,21.35
2022-08-19T09:53:42.686Z,21.15
2022-08-19T09:56:13.454Z,22.88
2022-08-19T09:58:42.942Z,20.33
2022-08-19T10:01:18.485Z,24.92
2022-08-19T10:03:51.760Z,20.98
2022-08-19T10:06:21.172Z,21.23
2022-08-19T10:09:12.936Z,20.55
2022-08-19T10:11:52.576Z,21.65
2022-08-19T10:14:24.335Z,21.30
2022-08-19T10:16:53.716Z,22.70
2022-08-19T10:19:25.479Z,18.13
2022-08-19T10:22:00.495Z,24.33
2022-08-19T10:24:31.731Z,16.75
2022-08-19T10:27:04.348Z,19.15
2022-08-19T10:29:35.364Z,19.00
2022-08-19T10:32:09.556Z,20.30
2022-08-19T10:34:48.186Z,16.02
2022-08-19T10:37:28.828Z,21.33
2022-08-19T10:40:03.088Z,18.87
2022-08-19T10:42:33.305Z,20.50
2022-08-19T10:45:02.853Z,16.58
2022-08-19T10:47:34.413Z,16.55
2022-08-19T10:50:21.341Z,16.30
2022-08-19T10:52:57.754Z,15.20
2022-08-19T10:55:45.797Z,15.20
2022-08-19T10:58:17.397Z,16.17
2022-08-19T11:00:54.768Z,13.43
2022-08-19T11:03:24.575Z,12.93
2022-08-19T11:06:01.256Z,15.33
2022-08-19T11:08:31.815Z,13.10
2022-08-19T11:11:04.461Z,16.77
2022-08-19T11:13:38.303Z,18.70
2022-08-19T11:16:14.361Z,12.70
2022-08-19T11:18:47.003Z,12.00
2022-08-19T11:21:21.119Z,14.03
2022-08-19T11:23:54.563Z,12.33
2022-08-19T11:26:28.020Z,16.43
2022-08-19T11:28:59.796Z,13.50
2022-08-19T11:31:32.787Z,13.47
2022-08-19T11:34:05.689Z,14.80
2022-08-19T11:36:35.359Z,12.20
2022-08-19T11:39:06.221Z,14.60
2022-08-19T11:41:37.127Z,16.20
2022-08-19T11:44:07.606Z,16.27
2022-08-19T11:46:39.067Z,12.80
2022-08-19T11:49:13.793Z,12.53
2022-08-19T11:51:44.899Z,14.10
2022-08-19T11:54:16.890Z,12.00
2022-08-19T11:56:49.949Z,15.43
2022-08-19T11:59:19.208Z,14.43
2022-08-19T12:01:48.381Z,15.13
2022-08-19T12:04:18.587Z,13.10
2022-08-19T12:06:50.939Z,14.57
2022-08-19T12:09:20.100Z,14.77
2022-08-19T12:11:51.833Z,14.30
2022-08-19T12:14:20.987Z,15.23
2022-08-19T12:16:52.715Z,14.63
2022-08-19T12:19:22.359Z,12.40
2022-08-19T12:21:53.966Z,13.90
2022-08-19T12:24:24.384Z,13.27
2022-08-19T12:26:56.330Z,14.33
2022-08-19T12:29:30.628Z,14.37
2022-08-19T12:32:02.232Z,16.13
2022-08-19T12:34:34.270Z,13.13
2022-08-19T12:37:06.824Z,13.60
2022-08-19T12:39:43.055Z,13.00
2022-08-19T12:42:15.872Z,10.70
2022-08-19T12:44:46.270Z,12.00
2022-08-19T12:47:16.069Z,12.87
2022-08-19T12:49:53.123Z,12.47
2022-08-19T12:52:28.085Z,14.43
2022-08-19T12:54:58.869Z,13.23
2022-08-19T12:57:33.484Z,12.40
2022-08-19T13:00:10.472Z,13.07
2022-08-19T13:02:41.522Z,12.60
2022-08-19T13:05:14.993Z,14.13
2022-08-19T13:07:45.760Z,10.90
2022-08-19T13:10:18.700Z,10.70
2022-08-19T13:12:51.959Z,10.63
2022-08-19T13:15:24.346Z,8.50
2022-08-19T13:17:56.597Z,13.00
2022-08-19T13:20:27.355Z,12.27
2022-08-19T13:22:58.120Z,16.93
2022-08-19T13:25:27.659Z,19.13
2022-08-19T13:27:58.099Z,17.83
2022-08-19T13:30:45.129Z,19.27
2022-08-19T13:33:16.107Z,20.33
2022-08-19T13:35:50.114Z,20.93
2022-08-19T13:38:22.696Z,24.77
2022-08-19T13:40:54.966Z,23.93
2022-08-19T13:43:28.523Z,28.93
2022-08-19T13:45:57.923Z,34.53
2022-08-19T13:48:29.466Z,26.77
2022-08-19T13:50:59.675Z,29.33
2022-08-19T13:53:28.810Z,31.20
2022-08-19T13:55:58.267Z,30.53
2022-08-19T13:58:28.982Z,33.47
2022-08-19T14:01:00.139Z,32.20
2022-08-19T14:03:33.409Z,29.20
2022-08-19T14:06:03.591Z,30.73
2022-08-19T14:08:33.272Z,29.17
2022-08-19T14:11:06.593Z,32.93
2022-08-19T14:13:38.073Z,34.60
2022-08-19T14:16:13.969Z,28.50
2022-08-19T14:18:43.804Z,30.40
2022-08-19T14:21:18.606Z,28.93
2022-08-19T14:23:47.837Z,24.73
2022-08-19T14:26:20.028Z,27.20
2022-08-19T14:28:51.673Z,28.63
2022-08-19T14:31:26.791Z,27.43
2022-08-19T14:34:00.556Z,26.57
2022-08-19T14:36:29.837Z,30.17
2022-08-19T14:38:59.768Z,35.83
2022-08-19T14:41:31.454Z,29.40
2022-08-19T14:44:02.518Z,29.03
2022-08-19T14:46:32.170Z,31.20
2022-08-19T14:49:01.665Z,30.20
2022-08-19T14:51:38.718Z,27.53
2022-08-19T14:54:08.256Z,25.38
2022-08-19T14:56:37.404Z,28.33
2022-08-19T14:59:07.947Z,26.60
2022-08-19T15:01:37.249Z,25.97
2022-08-19T15:04:06.795Z,25.93
2022-08-19T15:06:36.439Z,27.50
2022-08-19T15:09:06.423Z,24.80
2022-08-19T15:11:38.302Z,29.87
2022-08-19T15:14:08.780Z,28.33
2022-08-19T15:16:38.921Z,29.23
2022-08-19T15:19:08.037Z,28.60
2022-08-19T15:21:37.670Z,29.53
2022-08-19T15:24:07.648Z,28.90
2022-08-19T15:26:37.615Z,29.23
2022-08-19T15:29:09.249Z,29.00
2022-08-19T15:31:38.919Z,26.30
2022-08-19T15:34:09.114Z,26.13
2022-08-19T15:36:39.144Z,28.07
2022-08-19T15:39:10.177Z,26.40
2022-08-19T15:41:41.049Z,29.13
2022-08-19T15:44:17.334Z,26.10
2022-08-19T15:46:48.965Z,26.07
2022-08-19T15:49:20.632Z,28.30
2022-08-19T15:51:52.996Z,24.50
2022-08-19T15:54:23.454Z,24.23
2022-08-19T15:57:11.181Z,24.23
2022-08-19T16:00:00.062Z,25.57
2022-08-19T16:02:53.756Z,24.53
2022-08-19T16:05:44.692Z,25.70
2022-08-19T16:08:15.423Z,26.90
2022-08-19T16:10:44.594Z,27.47
2022-08-19T16:13:13.779Z,30.73
2022-08-19T16:15:44.911Z,26.07
2022-08-19T16:18:14.128Z,25.87
2022-08-19T16:20:43.862Z,24.60
2022-08-19T16:23:13.106Z,24.10
2022-08-19T16:25:44.724Z,24.40
2022-08-19T16:28:15.518Z,24.73
2022-08-19T16:30:48.473Z,25.07
2022-08-19T16:33:22.967Z,24.10
2022-08-19T16:36:00.138Z,25.93
2022-08-19T16:38:30.864Z,23.83
2022-08-19T16:41:01.494Z,23.30
2022-08-19T16:43:32.058Z,23.83
2022-08-19T16:46:02.685Z,22.00
2022-08-19T16:48:32.956Z,23.90
2022-08-19T16:51:09.341Z,25.73
2022-08-19T16:53:41.794Z,24.10
2022-08-19T16:56:11.544Z,24.07
2022-08-19T16:58:41.344Z,23.77
2022-08-19T17:01:16.344Z,19.77
2022-08-19T17:03:52.926Z,23.47
2022-08-19T17:06:32.636Z,24.47
2022-08-19T17:09:04.114Z,23.73
2022-08-19T17:11:33.866Z,24.20
2022-08-19T17:14:03.910Z,24.90
2022-08-19T17:16:37.321Z,24.47
2022-08-19T17:19:08.892Z,26.30
2022-08-19T17:21:40.737Z,23.83
2022-08-19T17:24:10.250Z,27.27
2022-08-19T17:26:41.459Z,26.05
2022-08-19T17:29:10.570Z,25.27
2022-08-19T17:31:41.069Z,29.45
2022-08-19T17:34:10.413Z,24.83
2022-08-19T17:36:39.548Z,27.30
2022-08-19T17:39:08.740Z,24.57
2022-08-19T17:41:37.871Z,22.07
2022-08-19T17:44:07.175Z,25.10
2022-08-19T17:46:41.015Z,24.27
2022-08-19T17:49:10.185Z,22.77
2022-08-19T17:51:49.551Z,23.90
2022-08-19T17:54:20.964Z,24.20
2022-08-19T17:56:50.151Z,22.57
2022-08-19T17:59:19.578Z,24.37
2022-08-19T18:01:54.451Z,22.53
2022-08-19T18:04:25.772Z,24.03
2022-08-19T18:06:56.091Z,24.38
2022-08-19T18:09:30.107Z,24.60
2022-08-19T18:12:13.083Z,22.77
2022-08-19T18:14:43.127Z,22.00
2022-08-19T18:17:19.144Z,24.80
2022-08-19T18:19:49.168Z,23.38
2022-08-19T18:22:30.583Z,22.07
2022-08-19T18:25:07.507Z,22.97
2022-08-19T18:27:43.325Z,22.70
2022-08-19T18:30:15.544Z,21.60
2022-08-19T18:32:49.661Z,21.77
2022-08-19T18:35:30.041Z,22.27
2022-08-19T18:38:01.772Z,24.10
2022-08-19T18:40:54.700Z,22.87
2022-08-19T18:43:47.511Z,22.53
2022-08-19T18:46:36.879Z,23.33
2022-08-19T18:49:11.207Z,21.02
2022-08-19T18:51:40.417Z,22.73
2022-08-19T18:54:11.772Z,20.05
2022-08-19T18:56:48.104Z,22.00
2022-08-19T18:59:29.606Z,22.52
2022-08-19T19:02:11.381Z,20.58
2022-08-19T19:04:47.157Z,21.90
2022-08-19T19:07:20.672Z,22.77
2022-08-19T19:09:51.381Z,22.97
2022-08-19T19:12:22.437Z,22.50
2022-08-19T19:14:53.018Z,19.27
2022-08-19T19:17:28.571Z,21.73
2022-08-19T19:20:00.656Z,21.37
2022-08-19T19:22:34.078Z,20.50
2022-08-19T19:25:03.650Z,21.73
2022-08-19T19:27:33.598Z,22.53
2022-08-19T19:30:02.835Z,20.77
2022-08-19T19:32:41.139Z,21.40
2022-08-19T19:35:24.722Z,20.98
2022-08-19T19:37:57.278Z,24.20
2022-08-19T19:40:27.962Z,21.38
2022-08-19T19:42:57.319Z,19.83
2022-08-19T19:45:31.602Z,23.90
2022-08-19T19:48:00.919Z,21.00
2022-08-19T19:50:36.860Z,19.70
2022-08-19T19:53:06.344Z,19.35
2022-08-19T19:55:36.343Z,19.17
2022-08-19T19:58:06.971Z,21.27
2022-08-19T20:00:37.176Z,20.97
2022-08-19T20:04:20.472Z,20.17
2022-08-19T20:06:51.015Z,20.80
2022-08-19T20:09:39.125Z,19.83
2022-08-19T20:12:19.384Z,20.80
2022-08-19T20:14:48.778Z,20.33
2022-08-19T20:17:23.194Z,20.53
2022-08-19T20:19:58.063Z,22.67
2022-08-19T20:22:28.636Z,23.20
2022-08-19T20:25:03.349Z,23.13
2022-08-19T20:27:39.935Z,21.77
2022-08-19T20:31:25.921Z,22.00
2022-08-19T20:34:04.368Z,20.60
2022-08-19T20:36:42.764Z,20.53
2022-08-19T20:39:14.160Z,20.80
2022-08-19T20:42:03.393Z,20.50
2022-08-19T20:44:32.586Z,20.23
2022-08-19T20:47:03.974Z,18.80
2022-08-19T20:49:35.246Z,16.90
2022-08-19T20:52:06.998Z,14.40
2022-08-19T20:54:37.583Z,14.83
2022-08-19T20:57:07.284Z,13.87
2022-08-19T20:59:39.475Z,12.37
2022-08-19T21:02:16.421Z,12.68
2022-08-19T21:04:45.641Z,11.17
2022-08-19T21:07:17.473Z,7.55
2022-08-19T21:09:51.082Z,7.13
2022-08-19T21:12:20.526Z,4.73
2022-08-19T21:14:51.607Z,5.50
2022-08-19T21:17:21.282Z,4.70
2022-08-19T21:19:50.680Z,5.68
2022-08-19T21:22:22.389Z,4.88
2022-08-19T21:24:56.557Z,5.17
2022-08-19T21:27:28.273Z,4.70
2022-08-19T21:29:57.594Z,5.13
2022-08-19T21:32:26.931Z,4.17
2022-08-19T21:34:57.634Z,4.80
2022-08-19T21:37:33.480Z,4.23
2022-08-19T21:40:05.326Z,3.87
2022-08-19T21:42:42.415Z,3.57
2022-08-19T21:45:14.076Z,3.57
2022-08-19T21:47:43.309Z,3.50
2022-08-19T21:50:14.302Z,5.70
2022-08-19T21:52:49.017Z,6.67
2022-08-19T21:55:20.678Z,4.35
2022-08-19T21:58:02.762Z,3.47
2022-08-19T22:01:36.750Z,3.03
2022-08-19T22:04:08.175Z,2.83
2022-08-19T22:06:39.053Z,4.00
2022-08-19T22:09:08.421Z,2.67
2022-08-19T22:12:51.688Z,2.88
2022-08-19T22:15:22.158Z,3.45
2022-08-19T22:22:33.353Z,5.35
2022-08-19T22:25:59.761Z,5.80
2022-08-19T22:28:32.462Z,3.65
2022-08-19T22:31:18.896Z,3.00
2022-08-19T22:34:34.415Z,3.63
2022-08-19T22:37:11.491Z,4.43
2022-08-19T22:39:46.423Z,3.70
2022-08-19T22:42:42.984Z,2.88
2022-08-19T22:45:17.909Z,2.80
2022-08-19T22:47:47.174Z,2.93
2022-08-19T22:50:19.798Z,3.38
2022-08-19T22:52:51.936Z,8.98
2022-08-19T22:55:23.958Z,3.30
2022-08-19T22:57:56.962Z,2.40
2022-08-19T23:00:35.086Z,3.03
2022-08-19T23:03:11.949Z,3.50
2022-08-19T23:05:41.508Z,2.60
2022-08-19T23:08:13.287Z,4.87
2022-08-19T23:10:49.941Z,3.53
2022-08-19T23:13:19.655Z,2.80
2022-08-19T23:15:50.975Z,3.38
2022-08-19T23:18:22.172Z,3.00
2022-08-19T23:20:53.775Z,2.53
2022-08-19T23:23:25.395Z,2.92
2022-08-19T23:25:58.349Z,3.38
2022-08-19T23:28:47.857Z,2.40
2022-08-19T23:31:18.344Z,3.10
2022-08-19T23:33:51.675Z,2.80
2022-08-19T23:36:24.213Z,2.95
2022-08-19T23:38:55.305Z,3.10
2022-08-19T23:41:27.131Z,3.15
2022-08-19T23:43:59.639Z,2.70
2022-08-19T23:46:31.580Z,2.65
2022-08-19T23:49:11.429Z,7.63
2022-08-19T23:51:40.611Z,3.83
2022-08-19T23:54:15.806Z,2.67
2022-08-19T23:56:53.060Z,2.72
2022-08-19T23:59:43.979Z,1.97
